Time;durP1;ratioP1;P1;durP2;ratioP2;P2;SDS_P1;SDS_P2;PMS_P1;PMS_P2;Temp;Humidity;BMP_temperature;BMP_pressure;BME280_temperature;BME280_humidity;BME280_pressure;Samples;Min_cycle;Max_cycle;Signal;HPM_P1;HPM_P2
2023/08/29 00:00:35;;;;;;;3.25;1.48;;;14.60;99.90;;;;;;5050676;28;20201;-77
2023/08/29 00:03:03;;;;;;;2.10;1.23;;;14.50;99.90;;;;;;5051026;28;20173;-78
2023/08/29 00:05:29;;;;;;;3.45;1.17;;;14.50;99.90;;;;;;5050848;28;20624;-77
2023/08/29 00:07:55;;;;;;;4.43;1.20;;;14.40;99.90;;;;;;5050937;28;20177;-76
2023/08/29 00:10:21;;;;;;;3.08;1.42;;;14.40;99.90;;;;;;5050974;28;20176;-74
2023/08/29 00:12:47;;;;;;;2.42;1.02;;;14.40;99.90;;;;;;5050679;28;20264;-75
2023/08/29 00:15:12;;;;;;;1.77;1.10;;;14.30;99.90;;;;;;5050629;28;20169;-75
2023/08/29 00:17:38;;;;;;;2.00;0.90;;;14.20;99.90;;;;;;5050770;28;20512;-75
2023/08/29 00:20:04;;;;;;;3.65;1.20;;;14.20;99.90;;;;;;5049519;28;20177;-75
2023/08/29 00:22:29;;;;;;;2.47;1.10;;;14.10;99.90;;;;;;5050636;28;20795;-76
2023/08/29 00:24:56;;;;;;;2.88;1.05;;;14.10;99.90;;;;;;5050671;28;20586;-76
2023/08/29 00:27:22;;;;;;;6.80;1.52;;;14.00;99.90;;;;;;5050691;28;20203;-76
2023/08/29 00:29:48;;;;;;;2.97;1.50;;;14.00;99.90;;;;;;5052461;28;20189;-76
2023/08/29 00:32:14;;;;;;;2.13;1.20;;;13.90;99.90;;;;;;5054575;28;20173;-75
2023/08/29 00:34:40;;;;;;;2.33;1.20;;;13.80;99.90;;;;;;5054550;28;20177;-76
2023/08/29 00:37:05;;;;;;;2.45;1.05;;;13.70;99.90;;;;;;5054575;28;20173;-76
2023/08/29 00:39:31;;;;;;;3.20;1.30;;;13.70;99.90;;;;;;5054530;28;20213;-75
2023/08/29 00:41:57;;;;;;;2.22;1.27;;;13.80;99.90;;;;;;5054146;28;20847;-75
2023/08/29 00:44:22;;;;;;;2.00;1.17;;;13.60;99.90;;;;;;5054378;28;20539;-75
2023/08/29 00:46:49;;;;;;;2.88;1.10;;;13.50;99.90;;;;;;5054055;28;20200;-76
2023/08/29 00:49:18;;;;;;;1.70;1.08;;;13.50;99.90;;;;;;5054258;28;20181;-75
2023/08/29 00:51:45;;;;;;;4.05;1.40;;;13.50;99.90;;;;;;5054288;28;20192;-74
2023/08/29 00:54:14;;;;;;;2.20;1.15;;;13.50;99.90;;;;;;5054308;28;20176;-74
2023/08/29 00:56:40;;;;;;;7.88;1.30;;;13.40;99.90;;;;;;5054028;28;20169;-74
2023/08/29 00:59:05;;;;;;;2.72;1.27;;;13.40;99.90;;;;;;5054026;28;20187;-74
2023/08/29 01:01:32;;;;;;;1.80;1.10;;;13.40;99.90;;;;;;5054213;28;20298;-74
2023/08/29 01:03:59;;;;;;;3.35;1.17;;;13.40;99.90;;;;;;5053839;28;20700;-74
2023/08/29 01:06:24;;;;;;;1.48;1.02;;;13.20;99.90;;;;;;5054143;28;20169;-74
2023/08/29 01:08:51;;;;;;;3.55;1.20;;;13.50;99.90;;;;;;5053817;28;20277;-74
2023/08/29 01:11:26;;;;;;;8.48;1.00;;;13.50;99.90;;;;;;5053804;28;20184;-74
2023/08/29 01:14:14;;;;;;;2.78;1.45;;;13.40;99.90;;;;;;5054013;28;20176;-73
2023/08/29 01:16:53;;;;;;;5.15;0.90;;;13.50;99.90;;;;;;5053530;28;20181;-74
2023/08/29 01:19:22;;;;;;;7.53;1.00;;;13.60;99.90;;;;;;5053762;28;20631;-74
2023/08/29 01:22:12;;;;;;;3.00;0.98;;;13.80;99.90;;;;;;5053600;28;20219;-74
2023/08/29 01:25:00;;;;;;;3.25;1.00;;;13.80;99.90;;;;;;5053455;28;20165;-73
2023/08/29 01:27:27;;;;;;;4.70;1.08;;;13.80;99.90;;;;;;5053436;28;20240;-73
2023/08/29 01:29:53;;;;;;;1.42;0.80;;;13.80;99.90;;;;;;5053749;28;20219;-73
2023/08/29 01:32:20;;;;;;;4.13;0.80;;;13.90;99.90;;;;;;5032813;28;20569;-74
2023/08/29 01:34:46;;;;;;;0.80;0.60;;;13.90;99.90;;;;;;5032077;28;20209;-74
2023/08/29 01:37:12;;;;;;;2.78;0.95;;;11.20;99.90;;;;;;5033643;28;20667;-74
2023/08/29 01:39:38;;;;;;;2.15;0.80;;;13.90;99.90;;;;;;5033457;28;20230;-75
2023/08/29 01:42:04;;;;;;;2.72;0.98;;;13.80;99.90;;;;;;5031079;28;20217;-75
2023/08/29 01:44:29;;;;;;;1.02;0.70;;;13.80;99.90;;;;;;5033434;28;20185;-75
2023/08/29 01:46:55;;;;;;;2.58;0.80;;;13.80;99.90;;;;;;5033059;28;20248;-74
2023/08/29 01:49:20;;;;;;;1.90;1.15;;;13.90;99.90;;;;;;5047058;28;20524;-74
2023/08/29 01:51:46;;;;;;;3.75;0.80;;;14.10;99.90;;;;;;5053188;28;20776;-73
2023/08/29 01:54:12;;;;;;;3.10;0.90;;;13.90;99.90;;;;;;5053213;28;20169;-73
2023/08/29 01:56:39;;;;;;;1.73;0.82;;;13.80;99.90;;;;;;5053025;28;20173;-74
2023/08/29 01:59:06;;;;;;;6.38;1.00;;;14.10;99.90;;;;;;5053137;28;20218;-75
2023/08/29 02:01:32;;;;;;;2.58;1.33;;;13.70;99.90;;;;;;5052681;28;20201;-74
2023/08/29 02:03:58;;;;;;;3.42;0.95;;;13.80;99.90;;;;;;5051577;28;20821;-74
2023/08/29 02:06:24;;;;;;;3.58;1.17;;;13.80;99.90;;;;;;5052830;28;20177;-74
2023/08/29 02:08:49;;;;;;;3.15;1.00;;;13.80;99.90;;;;;;5052651;28;20708;-74
2023/08/29 02:11:15;;;;;;;3.25;1.00;;;14.00;99.90;;;;;;5052647;28;20187;-73
2023/08/29 02:13:41;;;;;;;2.50;1.13;;;13.90;99.90;;;;;;5051678;28;20640;-74
2023/08/29 02:16:06;;;;;;;2.30;1.20;;;13.80;99.90;;;;;;5052499;28;20197;-72
2023/08/29 02:18:32;;;;;;;5.63;1.23;;;13.90;99.90;;;;;;5051321;28;20169;-73
2023/08/29 02:20:57;;;;;;;1.50;0.90;;;14.10;99.90;;;;;;5052367;28;20254;-73
2023/08/29 02:23:23;;;;;;;2.03;0.80;;;14.00;99.90;;;;;;5052720;28;20185;-72
2023/08/29 02:26:03;;;;;;;1.83;0.70;;;14.10;99.90;;;;;;5052444;28;20175;-72
2023/08/29 02:28:35;;;;;;;1.85;0.70;;;14.00;99.90;;;;;;5052329;28;20260;-73
2023/08/29 02:31:09;;;;;;;3.55;0.80;;;14.00;99.90;;;;;;5043619;28;20177;-73
2023/08/29 02:33:39;;;;;;;4.97;1.05;;;14.10;99.90;;;;;;5031301;28;20189;-74
2023/08/29 02:36:06;;;;;;;1.95;0.80;;;14.10;99.90;;;;;;5034824;28;20194;-74
2023/08/29 02:38:32;;;;;;;2.45;0.90;;;14.20;99.90;;;;;;5036055;28;20189;-73
2023/08/29 02:40:58;;;;;;;3.45;0.80;;;14.10;99.90;;;;;;5038325;28;20304;-73
2023/08/29 02:43:23;;;;;;;2.33;1.00;;;14.30;99.90;;;;;;5051917;28;20261;-74
2023/08/29 02:45:52;;;;;;;1.83;0.75;;;14.30;99.90;;;;;;5050208;28;20177;-74
2023/08/29 02:48:18;;;;;;;2.88;0.90;;;14.20;99.90;;;;;;5051914;28;20201;-74
2023/08/29 02:50:48;;;;;;;3.95;1.08;;;14.40;99.90;;;;;;5051654;28;20652;-73
2023/08/29 02:53:16;;;;;;;1.95;0.80;;;14.20;99.90;;;;;;5034971;28;20193;-73
2023/08/29 02:55:42;;;;;;;2.10;0.95;;;14.30;99.90;;;;;;5043636;28;20211;-74
2023/08/29 02:58:08;;;;;;;2.55;0.80;;;14.30;99.90;;;;;;5051920;28;20181;-73
2023/08/29 03:00:33;;;;;;;2.45;1.08;;;14.40;99.90;;;;;;5051714;28;20176;-73
2023/08/29 03:02:59;;;;;;;2.67;0.80;;;14.50;99.90;;;;;;5051572;28;20239;-73
2023/08/29 03:05:24;;;;;;;6.63;1.58;;;14.20;99.90;;;;;;5043512;28;20170;-73
2023/08/29 03:07:50;;;;;;;1.00;0.65;;;14.30;99.90;;;;;;5043219;28;20188;-73
2023/08/29 03:10:17;;;;;;;1.38;0.77;;;14.30;99.90;;;;;;5044424;28;20537;-73
2023/08/29 03:12:43;;;;;;;7.60;0.90;;;14.30;99.90;;;;;;5046039;28;20260;-73
2023/08/29 03:15:09;;;;;;;1.73;1.05;;;14.30;99.90;;;;;;5050325;28;20604;-73
2023/08/29 03:17:34;;;;;;;2.50;0.93;;;14.40;99.90;;;;;;5042900;28;20177;-74
2023/08/29 03:20:00;;;;;;;2.53;0.95;;;14.30;99.90;;;;;;5050093;28;20766;-74
2023/08/29 03:22:26;;;;;;;2.97;0.90;;;14.30;99.90;;;;;;5050916;28;20679;-74
2023/08/29 03:24:52;;;;;;;2.72;0.93;;;14.40;99.90;;;;;;5051097;28;20189;-73
2023/08/29 03:27:17;;;;;;;2.97;0.80;;;14.50;99.90;;;;;;5051236;28;20230;-75
2023/08/29 03:29:43;;;;;;;0.88;0.60;;;14.40;99.90;;;;;;5051235;28;20248;-73
2023/08/29 03:32:09;;;;;;;2.45;0.90;;;14.30;99.90;;;;;;5047229;28;20204;-74
2023/08/29 03:34:34;;;;;;;2.13;0.90;;;14.40;99.90;;;;;;5039351;28;20212;-74
2023/08/29 03:37:00;;;;;;;2.70;0.98;;;14.40;99.90;;;;;;5051156;28;20176;-74
2023/08/29 03:39:25;;;;;;;1.33;0.82;;;14.40;99.90;;;;;;5050863;28;20223;-74
2023/08/29 03:41:51;;;;;;;1.83;0.70;;;14.00;99.90;;;;;;5050603;28;20212;-75
2023/08/29 03:44:17;;;;;;;2.58;0.90;;;14.20;99.90;;;;;;5051163;28;20205;-75
2023/08/29 03:46:42;;;;;;;1.85;0.88;;;14.20;99.90;;;;;;5050901;28;20173;-74
2023/08/29 03:49:08;;;;;;;1.40;0.70;;;14.20;99.90;;;;;;5051057;28;20173;-72
2023/08/29 03:51:34;;;;;;;1.75;0.80;;;14.30;99.90;;;;;;5050873;28;20173;-73
2023/08/29 03:53:59;;;;;;;4.22;0.82;;;14.30;99.90;;;;;;5050992;28;20713;-72
2023/08/29 03:56:25;;;;;;;2.17;0.90;;;14.40;99.90;;;;;;5050909;28;20169;-74
2023/08/29 03:58:51;;;;;;;5.35;0.95;;;14.10;99.90;;;;;;5050949;28;20201;-73
2023/08/29 04:01:19;;;;;;;1.33;0.77;;;14.30;99.90;;;;;;5050911;28;20215;-74
2023/08/29 04:03:45;;;;;;;2.30;0.70;;;14.30;99.90;;;;;;5049003;28;20639;-74
2023/08/29 04:06:11;;;;;;;2.15;0.75;;;14.30;99.90;;;;;;5050835;28;20735;-74
2023/08/29 04:08:37;;;;;;;1.50;0.80;;;14.30;99.90;;;;;;5051074;28;20243;-74
2023/08/29 04:11:03;;;;;;;2.38;0.90;;;14.30;99.90;;;;;;5050740;28;20208;-74
2023/08/29 04:13:29;;;;;;;3.30;1.00;;;14.40;99.90;;;;;;5050627;28;20165;-74
2023/08/29 04:15:55;;;;;;;1.15;0.90;;;14.40;99.90;;;;;;5049467;28;20647;-74
2023/08/29 04:18:21;;;;;;;2.92;0.93;;;14.50;99.90;;;;;;5050831;28;20173;-72
2023/08/29 04:20:47;;;;;;;1.77;1.00;;;14.70;99.90;;;;;;5050591;28;20259;-73
2023/08/29 04:23:13;;;;;;;3.70;1.00;;;;;;;;;;5032717;28;20647;-74
2023/08/29 04:25:38;;;;;;;4.75;0.93;;;14.60;99.90;;;;;;5050878;28;20216;-73
2023/08/29 04:28:05;;;;;;;5.38;1.00;;;14.60;99.90;;;;;;5050698;28;20668;-75
2023/08/29 04:30:31;;;;;;;3.90;1.00;;;14.80;99.90;;;;;;5046186;28;20641;-74
2023/08/29 04:32:59;;;;;;;1.38;0.93;;;14.50;99.90;;;;;;5032552;28;20169;-74
2023/08/29 04:35:25;;;;;;;5.80;1.00;;;14.50;99.90;;;;;;5043401;28;20174;-73
2023/08/29 04:37:50;;;;;;;3.47;1.13;;;14.60;99.90;;;;;;5030965;28;20640;-73
2023/08/29 04:40:17;;;;;;;4.68;1.52;;;14.60;99.90;;;;;;5032313;28;20317;-74
2023/08/29 04:42:44;;;;;;;1.92;1.00;;;14.60;99.90;;;;;;5045224;28;20220;-74
2023/08/29 04:45:10;;;;;;;2.08;1.10;;;14.80;99.90;;;;;;5048989;28;20173;-74
2023/08/29 04:47:36;;;;;;;2.15;1.08;;;14.70;99.90;;;;;;5048184;28;20188;-75
2023/08/29 04:50:03;;;;;;;3.47;1.05;;;14.70;99.90;;;;;;5037874;28;20299;-74
2023/08/29 04:52:28;;;;;;;3.10;0.93;;;14.60;99.90;;;;;;5050696;28;20174;-74
2023/08/29 04:54:54;;;;;;;2.22;1.10;;;14.70;99.90;;;;;;5038536;28;20173;-74
2023/08/29 04:57:20;;;;;;;2.50;1.10;;;14.70;99.90;;;;;;5047936;28;20255;-73
2023/08/29 04:59:46;;;;;;;2.63;1.20;;;14.60;99.90;;;;;;5050151;28;20169;-73
2023/08/29 05:02:13;;;;;;;3.85;1.40;;;14.50;99.90;;;;;;5050418;28;20212;-73
2023/08/29 05:04:39;;;;;;;8.73;1.25;;;14.80;99.90;;;;;;5050295;28;20169;-74
2023/08/29 05:07:04;;;;;;;4.70;1.10;;;14.60;99.90;;;;;;5050402;28;20662;-74
2023/08/29 05:09:30;;;;;;;3.15;1.10;;;14.60;99.90;;;;;;5050486;28;20173;-72
2023/08/29 05:11:55;;;;;;;2.95;1.10;;;14.70;99.90;;;;;;5050221;28;20205;-74
2023/08/29 05:14:21;;;;;;;1.80;1.15;;;14.70;99.90;;;;;;5048958;28;20618;-73
2023/08/29 05:16:47;;;;;;;2.13;1.10;;;14.60;99.90;;;;;;5051377;28;20173;-73
2023/08/29 05:19:12;;;;;;;4.28;1.52;;;14.70;99.90;;;;;;5053775;28;20218;-74
2023/08/29 05:21:38;;;;;;;3.45;1.35;;;14.60;99.90;;;;;;5052141;28;20308;-74
2023/08/29 05:24:04;;;;;;;2.35;1.30;;;14.60;99.90;;;;;;5053858;28;20710;-74
2023/08/29 05:26:30;;;;;;;6.22;1.13;;;14.80;99.90;;;;;;5052244;28;20184;-74
2023/08/29 05:28:55;;;;;;;2.35;1.27;;;14.60;99.90;;;;;;5053418;28;20177;-74
2023/08/29 05:31:21;;;;;;;2.08;1.15;;;14.50;99.90;;;;;;5052128;28;20177;-75
2023/08/29 05:33:47;;;;;;;2.33;1.20;;;14.50;99.90;;;;;;5053525;28;20187;-75
2023/08/29 05:36:13;;;;;;;2.85;1.55;;;14.60;99.90;;;;;;5053352;28;20237;-74
2023/08/29 05:38:39;;;;;;;4.50;1.40;;;14.60;99.90;;;;;;5053224;28;20169;-74
2023/08/29 05:41:05;;;;;;;2.58;1.30;;;14.60;99.90;;;;;;5053417;28;20571;-74
2023/08/29 05:43:30;;;;;;;2.63;1.27;;;14.60;99.90;;;;;;5053306;28;20177;-74
2023/08/29 05:45:56;;;;;;;7.07;1.20;;;14.60;99.90;;;;;;5053206;28;20172;-74
2023/08/29 05:48:22;;;;;;;5.53;1.50;;;14.60;99.90;;;;;;5053129;28;20178;-74
2023/08/29 05:50:52;;;;;;;9.52;1.25;;;14.60;99.90;;;;;;5053032;28;20169;-74
2023/08/29 05:53:18;;;;;;;3.28;1.42;;;14.70;99.90;;;;;;5053015;28;20739;-74
2023/08/29 05:55:45;;;;;;;2.83;1.17;;;14.70;99.90;;;;;;5051021;28;20184;-74
2023/08/29 05:58:11;;;;;;;6.85;1.38;;;14.70;99.90;;;;;;5052995;28;20166;-74
2023/08/29 06:00:37;;;;;;;2.50;1.45;;;14.80;99.90;;;;;;5047237;28;20170;-74
2023/08/29 06:03:04;;;;;;;3.75;1.50;;;14.80;99.90;;;;;;5045617;28;20177;-74
2023/08/29 06:05:31;;;;;;;2.55;1.13;;;14.90;99.90;;;;;;5052975;28;20173;-74
2023/08/29 06:08:00;;;;;;;2.38;1.05;;;14.90;99.90;;;;;;5052681;28;20169;-74
2023/08/29 06:10:26;;;;;;;2.88;1.27;;;14.90;99.90;;;;;;5052775;28;20176;-75
2023/08/29 06:12:52;;;;;;;5.55;1.40;;;15.00;99.90;;;;;;5052618;28;20170;-73
2023/08/29 06:15:17;;;;;;;5.60;1.90;;;15.00;99.90;;;;;;5051177;28;20176;-73
2023/08/29 06:17:43;;;;;;;4.80;1.65;;;15.00;99.90;;;;;;5051231;28;20635;-72
2023/08/29 06:20:11;;;;;;;4.30;1.65;;;15.20;99.90;;;;;;5052427;28;20270;-72
2023/08/29 06:22:37;;;;;;;3.80;1.80;;;15.10;99.90;;;;;;5051200;28;20201;-73
2023/08/29 06:25:04;;;;;;;10.55;1.92;;;15.10;99.90;;;;;;5051303;28;20261;-72
2023/08/29 06:27:29;;;;;;;9.80;2.45;;;15.20;99.90;;;;;;5052024;28;20703;-73
2023/08/29 06:29:55;;;;;;;5.38;1.88;;;15.30;99.90;;;;;;5052467;28;20252;-74
2023/08/29 06:32:21;;;;;;;4.60;2.47;;;;;;;;;;5052155;28;20197;-73
2023/08/29 06:34:47;;;;;;;7.15;2.72;;;15.70;99.90;;;;;;5052288;28;20201;-74
2023/08/29 06:37:13;;;;;;;8.23;2.38;;;15.40;99.90;;;;;;5052016;28;20250;-74
2023/08/29 06:39:39;;;;;;;7.28;1.90;;;15.40;99.90;;;;;;5052286;28;20299;-75
2023/08/29 06:42:05;;;;;;;7.30;2.80;;;15.30;99.90;;;;;;5037442;28;20293;-75
2023/08/29 06:44:31;;;;;;;10.40;2.60;;;15.40;99.90;;;;;;5036461;28;20172;-75
2023/08/29 06:46:56;;;;;;;5.97;2.97;;;15.50;99.90;;;;;;5051810;28;20169;-76
2023/08/29 06:49:22;;;;;;;11.38;2.80;;;15.70;99.90;;;;;;5040373;28;20665;-75
2023/08/29 06:51:49;;;;;;;10.85;2.65;;;15.80;99.90;;;;;;5033773;28;20181;-74
2023/08/29 06:54:15;;;;;;;13.82;3.20;;;15.80;99.90;;;;;;5042868;28;20173;-74
2023/08/29 06:56:41;;;;;;;8.65;3.00;;;15.90;99.90;;;;;;5050442;28;20180;-74
2023/08/29 06:59:06;;;;;;;7.90;3.08;;;15.90;99.90;;;;;;5051900;28;20260;-74
2023/08/29 07:01:32;;;;;;;5.63;2.97;;;15.90;99.90;;;;;;5051630;28;20568;-73
2023/08/29 07:03:58;;;;;;;8.57;3.10;;;16.00;99.90;;;;;;5051916;28;20162;-75
2023/08/29 07:06:24;;;;;;;5.88;2.67;;;16.10;99.90;;;;;;5050344;28;20177;-74
2023/08/29 07:08:49;;;;;;;7.85;2.63;;;16.00;99.90;;;;;;5049488;28;20264;-74
2023/08/29 07:11:15;;;;;;;6.18;2.90;;;16.10;99.90;;;;;;5046270;28;20184;-73
2023/08/29 07:13:40;;;;;;;5.85;2.65;;;16.50;99.90;;;;;;5051698;28;20667;-74
2023/08/29 07:16:06;;;;;;;8.65;2.90;;;16.30;99.90;;;;;;5042566;28;20181;-74
2023/08/29 07:18:35;;;;;;;7.88;2.75;;;16.30;99.90;;;;;;5047758;28;20631;-74
2023/08/29 07:21:01;;;;;;;5.70;2.20;;;16.30;99.90;;;;;;5051398;28;20238;-74
2023/08/29 07:23:28;;;;;;;4.18;2.20;;;16.40;99.90;;;;;;5050744;28;20640;-73
2023/08/29 07:25:53;;;;;;;4.28;2.30;;;16.30;99.90;;;;;;5051399;28;20185;-74
2023/08/29 07:28:19;;;;;;;4.18;2.00;;;16.20;99.90;;;;;;5044557;28;20257;-74
2023/08/29 07:30:48;;;;;;;5.40;2.03;;;16.30;99.90;;;;;;5030235;28;20181;-74
2023/08/29 07:33:14;;;;;;;4.38;2.03;;;16.40;99.90;;;;;;5037146;28;20173;-74
2023/08/29 07:35:41;;;;;;;5.68;2.38;;;16.40;99.90;;;;;;5051147;28;20643;-74
2023/08/29 07:38:07;;;;;;;5.30;1.98;;;16.50;99.90;;;;;;5050968;28;20256;-74
2023/08/29 07:40:34;;;;;;;3.90;2.20;;;16.40;99.90;;;;;;5050251;28;20220;-76
2023/08/29 07:43:07;;;;;;;5.65;2.22;;;16.40;99.90;;;;;;5049215;28;20231;-74
2023/08/29 07:45:34;;;;;;;3.45;1.90;;;16.30;99.90;;;;;;5050851;28;20203;-74
2023/08/29 07:48:00;;;;;;;4.38;2.40;;;16.40;99.90;;;;;;5049693;28;20245;-75
2023/08/29 07:50:26;;;;;;;4.18;2.13;;;16.40;99.90;;;;;;5050971;28;20162;-74
2023/08/29 07:52:52;;;;;;;3.45;2.10;;;16.20;99.90;;;;;;5048899;28;20211;-74
2023/08/29 07:55:18;;;;;;;5.72;2.25;;;18.10;99.90;;;;;;5049917;28;20177;-74
2023/08/29 07:57:43;;;;;;;6.88;2.40;;;16.10;99.90;;;;;;5050858;28;20212;-75
2023/08/29 08:00:10;;;;;;;5.15;2.10;;;16.20;99.90;;;;;;5050854;28;20169;-74
2023/08/29 08:02:39;;;;;;;4.35;2.22;;;16.30;99.90;;;;;;5045492;28;20256;-74
2023/08/29 08:05:12;;;;;;;2.75;1.92;;;16.20;99.90;;;;;;5044874;28;20188;-76
2023/08/29 08:07:39;;;;;;;4.65;2.13;;;16.20;99.90;;;;;;5050790;28;20180;-76
2023/08/29 08:10:05;;;;;;;7.32;2.05;;;16.20;99.90;;;;;;5050678;28;20525;-73
2023/08/29 08:12:32;;;;;;;5.10;2.35;;;16.20;99.90;;;;;;5050985;28;20216;-76
2023/08/29 08:14:58;;;;;;;5.03;2.47;;;16.20;99.90;;;;;;5042743;28;20189;-77
2023/08/29 08:17:24;;;;;;;3.45;1.90;;;16.20;99.90;;;;;;5043895;28;20662;-74
2023/08/29 08:19:50;;;;;;;5.05;2.10;;;16.00;99.90;;;;;;5050809;28;20218;-75
2023/08/29 08:22:15;;;;;;;3.95;2.13;;;15.90;99.90;;;;;;5049105;28;20212;-77
2023/08/29 08:24:41;;;;;;;4.88;2.00;;;16.00;99.90;;;;;;5036129;28;20174;-76
2023/08/29 08:27:07;;;;;;;5.65;2.20;;;15.90;99.90;;;;;;5034542;28;20698;-76
2023/08/29 08:29:33;;;;;;;4.32;2.00;;;16.50;99.90;;;;;;5030780;28;20202;-75
2023/08/29 08:31:59;;;;;;;3.67;2.05;;;16.00;99.90;;;;;;5030859;28;20178;-75
2023/08/29 08:34:24;;;;;;;3.42;1.83;;;16.10;99.90;;;;;;5029421;28;20174;-75
2023/08/29 08:36:50;;;;;;;3.53;1.92;;;15.70;99.90;;;;;;5036925;28;20169;-74
2023/08/29 08:39:16;;;;;;;3.75;2.00;;;15.90;99.90;;;;;;5039603;28;20222;-75
2023/08/29 08:41:42;;;;;;;3.70;2.10;;;15.90;99.90;;;;;;5050503;28;20213;-76
2023/08/29 08:44:16;;;;;;;2.60;1.42;;;15.90;99.90;;;;;;5050451;28;20227;-74
2023/08/29 08:46:44;;;;;;;3.05;1.50;;;15.80;99.90;;;;;;5050202;28;20237;-76
2023/08/29 08:49:11;;;;;;;2.25;1.35;;;15.90;99.90;;;;;;5050436;28;20169;-77
2023/08/29 08:51:37;;;;;;;2.75;1.50;;;16.00;99.90;;;;;;5051683;28;20177;-73
2023/08/29 08:54:06;;;;;;;3.42;1.50;;;15.90;99.90;;;;;;5049644;28;20315;-73
2023/08/29 08:56:32;;;;;;;5.55;1.25;;;16.00;99.90;;;;;;5043542;28;20584;-73
2023/08/29 08:58:58;;;;;;;2.20;1.35;;;15.90;99.90;;;;;;5052865;28;20169;-73
2023/08/29 09:01:24;;;;;;;2.75;1.58;;;15.80;99.90;;;;;;5039901;28;20224;-73
2023/08/29 09:03:50;;;;;;;3.35;1.67;;;15.80;99.90;;;;;;5052488;28;20335;-73
2023/08/29 09:06:16;;;;;;;1.88;1.25;;;15.90;99.90;;;;;;5046260;28;20260;-72
2023/08/29 09:08:42;;;;;;;3.40;1.40;;;15.60;99.90;;;;;;5050394;28;20189;-75
2023/08/29 09:11:08;;;;;;;3.03;1.25;;;15.80;99.90;;;;;;5043903;28;20298;-73
2023/08/29 09:13:34;;;;;;;2.47;1.35;;;15.80;99.90;;;;;;5033818;28;20216;-75
2023/08/29 09:16:01;;;;;;;2.13;1.40;;;15.80;99.90;;;;;;5034682;28;20544;-73
2023/08/29 09:18:31;;;;;;;3.45;1.55;;;16.00;99.90;;;;;;5053169;28;20177;-72
2023/08/29 09:21:00;;;;;;;3.75;1.42;;;15.90;99.90;;;;;;5050352;28;20192;-72
2023/08/29 09:23:36;;;;;;;2.55;1.70;;;15.80;99.90;;;;;;5053679;28;20169;-73
2023/08/29 09:26:01;;;;;;;2.58;1.60;;;15.40;99.90;;;;;;5066056;28;20168;-73
2023/08/29 09:28:29;;;;;;;2.40;1.30;;;16.50;99.90;;;;;;5073554;28;20673;-73
2023/08/29 09:30:55;;;;;;;3.15;1.40;;;15.30;99.90;;;;;;5065833;28;20273;-74
2023/08/29 09:33:22;;;;;;;2.45;1.77;;;15.20;99.90;;;;;;5053574;28;20161;-73
2023/08/29 09:35:50;;;;;;;3.90;1.80;;;15.30;99.90;;;;;;5053398;28;20178;-73
2023/08/29 09:38:18;;;;;;;3.25;1.80;;;15.20;99.90;;;;;;5053304;28;20222;-74
2023/08/29 09:40:48;;;;;;;2.90;1.67;;;15.10;99.90;;;;;;5053092;28;20695;-74
2023/08/29 09:43:16;;;;;;;2.35;1.60;;;15.20;99.90;;;;;;5053353;28;20204;-73
2023/08/29 09:45:43;;;;;;;3.00;1.85;;;15.90;99.90;;;;;;5052347;28;20169;-74
2023/08/29 09:48:09;;;;;;;2.30;1.70;;;15.20;99.90;;;;;;5049067;28;20555;-74
2023/08/29 09:50:36;;;;;;;4.65;1.90;;;15.30;99.90;;;;;;5053135;28;20652;-74
2023/08/29 09:53:03;;;;;;;2.65;1.65;;;15.40;99.90;;;;;;5052155;28;20263;-76
2023/08/29 09:55:38;;;;;;;2.88;1.70;;;15.80;99.90;;;;;;5042446;28;20173;-76
2023/08/29 09:58:05;;;;;;;2.08;1.58;;;15.50;99.90;;;;;;5052928;28;20690;-75
2023/08/29 10:00:32;;;;;;;4.18;2.00;;;15.60;99.90;;;;;;5052750;28;20177;-76
2023/08/29 10:02:59;;;;;;;3.50;2.00;;;15.90;99.90;;;;;;5052441;28;20365;-77
2023/08/29 10:05:30;;;;;;;4.30;1.90;;;15.80;99.90;;;;;;5046402;28;20170;-79
2023/08/29 10:07:57;;;;;;;4.25;1.80;;;16.10;99.90;;;;;;5042644;28;20205;-80
2023/08/29 10:10:24;;;;;;;4.55;2.20;;;16.10;99.90;;;;;;5043836;28;20231;-79
2023/08/29 10:12:50;;;;;;;5.35;2.00;;;16.30;99.90;;;;;;5034189;28;20642;-76
2023/08/29 10:15:20;;;;;;;3.42;2.05;;;16.40;99.90;;;;;;5031309;28;20174;-80
2023/08/29 10:17:47;;;;;;;7.97;1.95;;;16.70;99.90;;;;;;5047978;28;20665;-77
2023/08/29 10:20:13;;;;;;;5.50;2.60;;;16.70;99.90;;;;;;5038273;28;20239;-78
2023/08/29 10:22:45;;;;;;;9.07;2.38;;;16.70;99.90;;;;;;5032951;28;20753;-79
2023/08/29 10:25:13;;;;;;;5.05;2.22;;;16.80;99.90;;;;;;5032784;28;20170;-78
2023/08/29 10:27:40;;;;;;;5.80;2.10;;;16.80;99.90;;;;;;5032798;28;20170;-77
2023/08/29 10:30:06;;;;;;;5.10;2.20;;;16.80;99.90;;;;;;5038119;28;20222;-78
2023/08/29 10:32:34;;;;;;;5.15;2.40;;;16.90;99.90;;;;;;5052663;28;20628;-78
2023/08/29 10:35:00;;;;;;;4.78;2.60;;;16.80;99.90;;;;;;5052558;28;20192;-78
2023/08/29 10:37:28;;;;;;;5.35;2.35;;;17.00;99.90;;;;;;5052531;28;20165;-77
2023/08/29 10:40:13;;;;;;;5.53;2.20;;;17.10;99.90;;;;;;5050611;28;20286;-77
2023/08/29 10:42:53;;;;;;;5.38;2.78;;;17.20;99.90;;;;;;5032179;28;20244;-77
2023/08/29 10:45:41;;;;;;;5.68;2.33;;;17.40;99.90;;;;;;5032458;28;20260;-78
2023/08/29 10:48:06;;;;;;;7.05;2.40;;;17.50;99.90;;;;;;5033565;28;20197;-77
2023/08/29 10:50:33;;;;;;;6.50;2.40;;;17.40;99.90;;;;;;5051955;28;20636;-78
2023/08/29 10:52:59;;;;;;;8.77;2.85;;;17.60;99.90;;;;;;5052054;28;20186;-78
2023/08/29 10:55:31;;;;;;;6.50;2.60;;;17.70;99.90;;;;;;5052003;28;20166;-76
2023/08/29 10:58:00;;;;;;;7.28;2.90;;;17.50;99.90;;;;;;5052073;28;20248;-76
2023/08/29 11:00:33;;;;;;;4.38;2.42;;;17.50;99.90;;;;;;5052052;28;20182;-77
2023/08/29 11:02:59;;;;;;;7.65;3.00;;;17.50;99.90;;;;;;5050343;28;20220;-77
2023/08/29 11:05:25;;;;;;;10.98;3.05;;;17.60;99.90;;;;;;5051756;28;20169;-76
2023/08/29 11:07:51;;;;;;;7.60;2.95;;;17.60;99.90;;;;;;5051751;28;20176;-77
2023/08/29 11:10:22;;;;;;;12.10;3.17;;;17.50;99.90;;;;;;5031562;28;20186;-77
2023/08/29 11:13:09;;;;;;;8.15;2.95;;;17.60;99.90;;;;;;5032169;28;20202;-75
2023/08/29 11:15:49;;;;;;;6.25;2.60;;;17.60;99.90;;;;;;5031427;28;20169;-77
2023/08/29 11:18:18;;;;;;;5.93;3.00;;;17.70;99.90;;;;;;5031876;28;20280;-76
2023/08/29 11:20:44;;;;;;;5.53;2.92;;;17.70;99.90;;;;;;5039957;28;20169;-76
2023/08/29 11:23:11;;;;;;;6.88;2.97;;;17.80;99.90;;;;;;5051353;28;20184;-76
2023/08/29 11:25:38;;;;;;;4.85;2.60;;;17.80;99.90;;;;;;5051547;28;20177;-76
2023/08/29 11:28:04;;;;;;;6.93;3.05;;;18.10;99.90;;;;;;5051487;28;20230;-77
2023/08/29 11:30:30;;;;;;;4.43;2.72;;;17.90;99.90;;;;;;5048150;28;20177;-77
2023/08/29 11:32:56;;;;;;;4.38;2.88;;;17.30;99.90;;;;;;5031799;28;20173;-77
2023/08/29 11:35:22;;;;;;;9.35;3.13;;;;;;;;;;5029954;28;20497;-81
2023/08/29 11:37:48;;;;;;;8.23;2.90;;;;;;;;;;5031390;28;20166;-81
2023/08/29 11:40:19;;;;;;;9.20;2.78;;;16.60;99.90;;;;;;5040360;28;20232;-80
2023/08/29 11:42:44;;;;;;;5.28;2.67;;;16.90;99.90;;;;;;5049026;28;20568;-79
2023/08/29 11:45:14;;;;;;;7.40;3.20;;;17.00;99.90;;;;;;5051132;28;20216;-79
2023/08/29 11:47:41;;;;;;;6.32;3.22;;;17.10;99.90;;;;;;5051089;28;20173;-81
2023/08/29 11:50:07;;;;;;;7.13;3.28;;;16.90;99.90;;;;;;5051006;28;20162;-80
2023/08/29 11:52:33;;;;;;;6.65;3.55;;;16.70;99.90;;;;;;5043237;28;20178;-80
2023/08/29 11:55:03;;;;;;;10.02;3.55;;;16.80;99.90;;;;;;5044734;28;20183;-80
2023/08/29 11:57:30;;;;;;;6.40;3.88;;;16.70;99.90;;;;;;5049418;28;20583;-80
2023/08/29 11:59:57;;;;;;;6.53;3.45;;;16.60;99.90;;;;;;5049594;28;20260;-80
2023/08/29 12:02:23;;;;;;;7.03;3.28;;;16.50;99.90;;;;;;5050955;28;20233;-79
2023/08/29 12:04:55;;;;;;;6.45;3.67;;;16.50;99.90;;;;;;5051805;28;20173;-79
2023/08/29 12:07:21;;;;;;;8.57;3.17;;;16.80;99.90;;;;;;5049683;28;20177;-80
2023/08/29 12:09:47;;;;;;;8.48;3.50;;;16.80;99.90;;;;;;5050841;28;20648;-81
2023/08/29 12:12:35;;;;;;;6.45;3.15;;;16.70;99.90;;;;;;5049530;28;20231;-79
2023/08/29 12:15:05;;;;;;;6.10;2.85;;;16.90;99.90;;;;;;5049792;28;20185;-81
2023/08/29 12:17:42;;;;;;;6.28;2.80;;;16.80;99.90;;;;;;5044941;28;20754;-81
2023/08/29 12:20:14;;;;;;;5.90;3.28;;;17.70;99.90;;;;;;5050797;28;20181;-79
2023/08/29 12:22:50;;;;;;;4.13;2.70;;;17.90;99.90;;;;;;5050757;28;20213;-79
2023/08/29 12:25:16;;;;;;;5.50;3.05;;;17.70;99.90;;;;;;5051560;28;20203;-79
2023/08/29 12:27:44;;;;;;;7.32;3.28;;;18.20;99.90;;;;;;5054885;28;20247;-78
2023/08/29 12:30:14;;;;;;;6.55;3.28;;;18.40;99.90;;;;;;5053260;28;20162;-78
2023/08/29 12:32:40;;;;;;;6.72;3.60;;;18.30;99.90;;;;;;5039775;28;20258;-79
2023/08/29 12:35:07;;;;;;;8.57;3.45;;;18.40;99.90;;;;;;5033749;28;20174;-79
2023/08/29 12:37:33;;;;;;;6.80;3.22;;;18.30;99.90;;;;;;5049587;28;20181;-76
2023/08/29 12:39:58;;;;;;;9.88;3.20;;;18.20;99.90;;;;;;5054376;28;20215;-73
2023/08/29 12:42:24;;;;;;;6.25;3.15;;;18.00;99.90;;;;;;5051847;28;20224;-74
2023/08/29 12:44:50;;;;;;;3.88;2.85;;;18.30;99.90;;;;;;5048642;28;20177;-74
2023/08/29 12:47:16;;;;;;;8.15;2.60;;;18.00;99.90;;;;;;5046732;28;20192;-77